• Join FlightAware (Why Join?)
  • Login
  • US Flag 
04:48AM EDT


 

Airport Tracker/Info


-or-


 

Live Flight TrackerFlight Track Log ✈ N400WD ✈ 22-Jul-2013 ✈ KPTK - KMKE

Flight Track Log - Related Links

Times and Time Zones

All times are in EDT time to prevent confusion due to time zone crossing. See the N400WD flight status page for this flight to view local times or setup timezone preferences in your user account.

Time Position Orientation Groundspeed Altitude Reporting Facility
EDT Latitude Longitude Course Direction KTS MPH feet Rate Location/Type
07:05AM 42.6622 -83.4406 248° West 159 183 1,800  Level Cleveland Center
07:07AM 42.6419 -83.5103 248° West 196 226 4,700 1,500 Climbing Cleveland Center
07:08AM 42.6211 -83.5911 251° West 254 292 5,000 120 Climbing Cleveland Center
07:09AM 42.5850 -83.6908 244° Southwest 257 296 5,000 780 Level Cleveland Center
07:10AM 42.5622 -83.7575 245° Southwest 249 287 6,600 2,220 Climbing Cleveland Center
07:11AM 42.5322 -83.8603 248° West 270 311 9,300 2,700 Climbing Cleveland Center
07:12AM 42.5069 -83.9464 248° West 275 316 12,000 1,800 Climbing Cleveland Center
07:13AM 42.4728 -84.0458 245° Southwest 285 328 13,000 1,140 Climbing Cleveland Center
07:14AM 42.4381 -84.1536 246° West 300 345 14,300 1,500 Climbing Cleveland Center
07:15AM 42.4075 -84.2672 250° West 300 345 16,000 2,100 Climbing Cleveland Center
07:16AM 42.4481 -84.3625 300° West 284 327 18,500 1,980 Climbing Cleveland Center
07:17AM 42.4908 -84.4553 302° West 276 318 20,000 660 Climbing Cleveland Center
07:18AM 42.5494 -84.5836 302° West 333 383 20,000  Level Chicago Center
07:19AM 42.5997 -84.6978 301° West 351 404 20,000  Level Chicago Center
07:20AM 42.6489 -84.8142 300° West 355 409 20,000  Level Chicago Center
07:21AM 42.7003 -84.9283 302° West 355 409 20,000  Level Chicago Center
07:22AM 42.7494 -85.0431 300° West 353 406 20,000  Level Chicago Center
07:23AM 42.7908 -85.1897 291° West 355 409 20,000  Level Chicago Center
07:24AM 42.8167 -85.3139 286° West 345 397 20,000  Level Chicago Center
07:25AM 42.8425 -85.4400 286° West 345 397 20,000  Level Chicago Center
07:26AM 42.8678 -85.5672 285° West 347 399 20,000  Level Chicago Center
07:27AM 42.8933 -85.6953 285° West 349 402 20,000  Level Chicago Center
07:28AM 42.9183 -85.8228 285° West 347 399 20,000  Level Chicago Center
07:29AM 42.9431 -85.9531 285° West 348 400 20,000  Level Chicago Center
07:30AM 42.9700 -86.0869 285° West 351 404 20,000  Level Chicago Center
07:31AM 42.9961 -86.2153 286° West 347 399 20,000  Level Chicago Center
07:32AM 43.0217 -86.3444 285° West 350 403 20,000  Level Chicago Center
07:33AM 43.0467 -86.4736 285° West 352 405 20,000 -60 Level Chicago Center
07:34AM 43.0711 -86.6019 285° West 351 404 19,900 -900 Descending Chicago Center
07:35AM 43.0942 -86.7283 284° West 345 397 18,200 -1,860 Descending Chicago Center
07:36AM 43.1167 -86.8500 284° West 334 384 16,200 -2,100 Descending Chicago Center
07:37AM 43.1431 -86.9914 284° West 322 371 14,000 -1,140 Descending Chicago Center
07:38AM 43.1522 -87.1114 276° West 321 369 13,900 -60 Descending Chicago Center
07:39AM 43.1467 -87.2356 267° West 328 377 13,900  Level Chicago Center
07:40AM 43.1072 -87.3392 242° Southwest 313 360 13,900 -540 Level Chicago Center
07:41AM 43.0514 -87.4222 227° Southwest 316 364 12,900 -1,560 Descending Chicago Center
07:42AM 43.0325 -87.5297 257° West 287 330 10,800 -2,880 Descending Chicago Center
07:43AM 43.0042 -87.6364 250° West 257 296 7,000 -3,660 Descending Chicago Center
07:44AM 42.9836 -87.7325 254° West 259 298 3,300 -2,520 Descending Chicago Center
07:45AM 42.9647 -87.8161 253° West 245 282 1,900 -900 Descending Chicago Center
07:46AM 42.9475 -87.8706 247° West 207 238 1,500 -420 Descending Chicago Center
07:49AM 42.9333 -87.8833 228° Southwest  Level FlightAware Approximate